Latest METARs, TAFs and NOTAMs for SKCL


---------------------------------------------------------------------------
	(OBSERVATIONS)
SKCL 110700Z 06004KT 9999 FEW025 SCT100 20/20 A3002=
SKCL 110600Z 06003KT 9999 FEW025 SCT120 20/20 A3003=
SKCL 110500Z 02003KT 9999 FEW025 BKN120 20/20 A3005=
---------------------------------------------------------------------------
	(TERMINAL AREA FORECAST)
SKCL 110500Z 1106/1206 02004KT 9999 FEW020 BKN100
    TEMPO 1109/1112 7000 VCFG SCT010
    TEMPO 1114/1117 8000 SCT030
    TEMPO 1119/1122 34012KT VCSH SCT015TCU BKN120
    TX27/1119Z TN18/1111Z=
---------------------------------------------------------------------------
	(NOTAMS)


SKCL A0463/17 RWY 02/20 LTD RESTRICTED FLT TRG DUE FAILURES FREQ
    AND FLOW OF TFC 15 FEB 14:15 UNTIL 22 FEB 23:59 ESTIMATED
    H24

SKCL A0632/17 TURBINE START POINT NR 08 INSTL NEXT COORD: 033207,81N0762307,42W
    TURBINE START POINT NR 09 INSTL NEXT COORD: 033203,04N0762308,24W
    03 MAR 15:00 UNTIL PERM

SKCL A1134/17 ACFT STAND G5 AUTH TEST ENGINES, ACFT TIL CAT B
    REF. AIP AD APDC. 25 APR 14:47 2017 UNTIL PERM. CREATED:
    25 APR 14:49 2017

SKCL A1237/17 HELIPORT H1, H2, H3 CLSD TO ALL NGT OPS REF. AIP
    AD 2.16 - SKCL. 03 MAY 19:05 2017 UNTIL PERM. CREATED: 03
    MAY 19:09 2017

SKCL A2332/17 ENG START POINT NR 01 INSTL NEXT COORD: 033219,16N0762318,08W
    REF AIP AD 2 SKCL PLANO DE SPOTS. 25 AUG 21:38 2017 UNTIL
    PERM. CREATED: 25 AUG 21:54 2017

SKCL A2732/17 STRIP RWY 02/20 WIP EXER CTN. 30 SEP 00:01 2017
    UNTIL 31 DEC 23:59 2017. CREATED: 28 SEP 16:52 2017

SKCL A2733/17 STRIP TWY A1,B,C,D,E,A3,G,R,P,L,K WIP, EXER CTN.
    H24, 28 SEP 18:50 2017 UNTIL 31 DEC 23:59 2017. CREATED:
    28 SEP 18:52 2017

SKCL A2788/17 ACFT STAND NR A-4 INSTL ON COORD 033215,070N0762316,930W.
    04 OCT 13:38 2017 UNTIL PERM. CREATED: 04 OCT 13:49 2017

SKCL A2850/17 APN, CARGO APN AND DESCONGESTION APN WIP, EXER
    CTN. GDN - UNL, 09 OCT 18:27 2017 UNTIL 31 DEC 23:59 2017.
    CREATED: 09 OCT 18:31 2017

SKCL A3290/17 TWY P CLSD. H24, 24 NOV 12:00 2017 UNTIL 15 DEC
    12:00 2017. CREATED: 23 NOV 03:04 2017

SKCL A3317/17 TWY A BTN TWY C AND TWY B LTD, RESTRICTED FOR ACFT
    TIL CAT A. H24, 27 NOV 21:40 2017 UNTIL 15 DEC 12:00 2017.
    CREATED: 27 NOV 21:48 2017

SKCL A3396/17 TRIGGER NOTAM - AIRAC AIP SUP A72/17 WEF 04JAN18
    SKCL REF. AIP GEN 3.2?AD 2-SKCL AMA,RMAC. 04 JAN 00:00 2018
    UNTIL 18 JAN 23:59 2018. CREATED: 07 DEC 05:29 2017

SKCL A3429/17 SEQUENCED FLG LGT RWY 02 U/S. 10 DEC 15:50 2017
    UNTIL 18 DEC 23:59 2017 ESTIMATED. CREATED: 10 DEC 15:48
    2017

---------------------------------------------------------------------------